createdAt,value
2024-04-18T00:09:21.787Z,3.315
2024-04-18T00:19:22.241Z,3.317
2024-04-18T00:29:22.229Z,3.315
2024-04-18T00:39:22.362Z,3.312
2024-04-18T00:49:22.242Z,3.315
2024-04-18T00:59:22.181Z,3.315
2024-04-18T01:09:22.196Z,3.315
2024-04-18T01:19:22.155Z,3.315
2024-04-18T01:29:22.138Z,3.315
2024-04-18T01:39:22.166Z,3.315
2024-04-18T01:49:22.267Z,3.315
2024-04-18T01:59:22.098Z,3.315
2024-04-18T02:09:21.612Z,3.315
2024-04-18T02:19:22.092Z,3.317
2024-04-18T02:29:21.570Z,3.315
2024-04-18T02:39:22.055Z,3.315
2024-04-18T02:59:22.019Z,3.315
2024-04-18T03:09:22.018Z,3.315
2024-04-18T03:19:22.007Z,3.315
2024-04-18T03:29:22.034Z,3.315
2024-04-18T03:39:22.011Z,3.315
2024-04-18T03:49:21.941Z,3.315
2024-04-18T03:59:21.937Z,3.312
2024-04-18T04:09:21.948Z,3.315
2024-04-18T04:19:21.798Z,3.315
2024-04-18T04:29:21.894Z,3.315
2024-04-18T04:39:21.949Z,3.315
2024-04-18T04:49:21.976Z,3.315
2024-04-18T04:59:21.854Z,3.315
2024-04-18T05:09:21.894Z,3.315
2024-04-18T05:19:21.829Z,3.315
2024-04-18T05:59:21.526Z,3.315
2024-04-18T06:09:21.777Z,3.315
2024-04-18T06:19:21.752Z,3.315
2024-04-18T06:29:21.721Z,3.315
2024-04-18T06:39:21.505Z,3.315
2024-04-18T06:49:21.704Z,3.315
2024-04-18T06:59:21.673Z,3.315
2024-04-18T07:09:21.685Z,3.315
2024-04-18T07:19:21.184Z,3.315
2024-04-18T07:29:21.640Z,3.315
2024-04-18T07:39:21.653Z,3.315
2024-04-18T07:49:21.662Z,3.315
2024-04-18T07:59:21.859Z,3.315
2024-04-18T08:09:24.112Z,3.315
2024-04-18T08:19:21.577Z,3.315
2024-04-18T08:29:21.565Z,3.315
2024-04-18T08:39:21.573Z,3.315
2024-04-18T08:49:21.623Z,3.312
2024-04-18T08:59:21.535Z,3.31
2024-04-18T09:09:21.534Z,3.31
2024-04-18T09:19:21.586Z,3.308
2024-04-18T09:29:21.487Z,3.308
2024-04-18T09:39:21.567Z,3.308
2024-04-18T09:49:21.526Z,3.308
2024-04-18T09:59:21.450Z,3.308
2024-04-18T10:09:21.486Z,3.308
2024-04-18T10:19:21.435Z,3.308
2024-04-18T10:29:21.398Z,3.308
2024-04-18T10:39:21.193Z,3.308
2024-04-18T10:49:21.458Z,3.308
2024-04-18T10:59:21.384Z,3.31
2024-04-18T11:09:21.365Z,3.308
2024-04-18T11:19:21.434Z,3.308
2024-04-18T11:29:21.098Z,3.308
2024-04-18T11:39:21.342Z,3.308
2024-04-18T11:49:21.365Z,3.308
2024-04-18T11:59:21.284Z,3.308
2024-04-18T12:09:21.291Z,3.308
2024-04-18T12:19:21.273Z,3.308
2024-04-18T12:29:20.777Z,3.308
2024-04-18T12:39:21.073Z,3.306
2024-04-18T12:49:21.329Z,3.306
2024-04-18T12:59:21.283Z,3.306
2024-04-18T13:09:21.235Z,3.308
2024-04-18T13:19:21.327Z,3.308
2024-04-18T13:29:21.215Z,3.306
2024-04-18T13:39:20.954Z,3.308
2024-04-18T13:59:21.160Z,3.306
2024-04-18T14:09:21.213Z,3.304
2024-04-18T14:19:20.912Z,3.304
2024-04-18T14:29:21.106Z,3.304
2024-04-18T14:39:21.135Z,3.304
2024-04-18T14:49:21.084Z,3.301
2024-04-18T14:59:21.085Z,3.304
2024-04-18T15:19:21.083Z,3.304
2024-04-18T15:29:21.049Z,3.301
2024-04-18T15:39:21.105Z,3.301
2024-04-18T15:49:21.105Z,3.304
2024-04-18T15:59:21.005Z,3.304
2024-04-18T16:09:21.028Z,3.304
2024-04-18T16:19:20.977Z,3.306
2024-04-18T16:39:21.003Z,3.304
2024-04-18T16:49:20.951Z,3.304
2024-04-18T16:59:20.952Z,3.304
2024-04-18T17:09:20.955Z,3.301
2024-04-18T17:19:21.670Z,3.301
2024-04-18T17:39:20.970Z,3.301
2024-04-18T18:09:20.993Z,3.299
2024-04-18T18:19:21.080Z,3.299
2024-04-18T18:29:20.835Z,3.299
2024-04-18T18:39:20.900Z,3.299
2024-04-18T18:49:20.911Z,3.299
2024-04-18T18:59:20.796Z,3.297
2024-04-18T19:19:20.787Z,3.297
2024-04-18T19:29:27.337Z,3.297
2024-04-18T19:39:20.799Z,3.297
2024-04-18T19:49:20.777Z,3.297
2024-04-18T19:59:20.745Z,3.297
2024-04-18T20:09:20.764Z,3.295
2024-04-18T20:19:20.326Z,3.297
2024-04-18T20:29:20.722Z,3.295
2024-04-18T20:39:20.777Z,3.295
2024-04-18T20:49:20.728Z,3.295
2024-04-18T21:09:20.743Z,3.295
2024-04-18T21:19:21.945Z,3.295
2024-04-18T21:29:20.723Z,3.295
2024-04-18T21:39:20.726Z,3.295
2024-04-18T21:49:20.747Z,3.295
2024-04-18T21:59:20.672Z,3.295
2024-04-18T22:09:20.459Z,3.295
2024-04-18T22:19:20.793Z,3.293
2024-04-18T22:29:20.644Z,3.293
2024-04-18T22:39:20.671Z,3.293
2024-04-18T22:49:20.197Z,3.293
2024-04-18T22:59:20.403Z,3.293
2024-04-18T23:09:20.648Z,3.293
2024-04-18T23:29:20.361Z,3.293
2024-04-18T23:39:20.610Z,3.291
2024-04-18T23:59:20.572Z,3.291
